Time;durP1;ratioP1;P1;durP2;ratioP2;P2;SDS_P1;SDS_P2;PMS_P1;PMS_P2;Temp;Humidity;BMP_temperature;BMP_pressure;BME280_temperature;BME280_humidity;BME280_pressure;Samples;Min_cycle;Max_cycle;Signal;HPM_P1;HPM_P2
2022/10/18 00:00:25;;;;;;;;;;;;;;;20.53;59.60;102657.09;7405630;19;1519;-37
2022/10/18 00:02:54;;;;;;;;;;;;;;;20.51;59.25;102656.34;7402447;19;1662;-38
2022/10/18 00:05:22;;;;;;;;;;;;;;;20.50;59.64;102651.94;7402961;19;1838;-37
2022/10/18 00:07:50;;;;;;;;;;;;;;;20.51;59.54;102651.81;7404039;19;1602;-38
2022/10/18 00:10:18;;;;;;;;;;;;;;;20.47;59.43;102644.91;7404825;19;1623;-37
2022/10/18 00:12:47;;;;;;;;;;;;;;;20.45;59.44;102652.22;7405863;19;1520;-37
2022/10/18 00:15:18;;;;;;;;;;;;;;;20.48;59.30;102635.91;7404478;19;1590;-36
2022/10/18 00:17:46;;;;;;;;;;;;;;;20.44;59.32;102637.06;7404110;19;1943;-37
2022/10/18 00:20:15;;;;;;;;;;;;;;;20.44;59.42;102629.00;7404585;19;1579;-37
2022/10/18 00:22:43;;;;;;;;;;;;;;;20.44;59.39;102642.44;7404038;19;1454;-37
2022/10/18 00:25:12;;;;;;;;;;;;;;;20.46;59.32;102637.84;7402861;19;1853;-36
2022/10/18 00:27:40;;;;;;;;;;;;;;;20.43;59.38;102611.16;7403371;19;1540;-36
2022/10/18 00:30:09;;;;;;;;;;;;;;;20.41;59.06;102646.22;7403478;19;1587;-37
2022/10/18 00:32:40;;;;;;;;;;;;;;;20.43;59.03;102640.72;7404089;19;1725;-36
2022/10/18 00:35:09;;;;;;;;;;;;;;;20.42;58.97;102631.78;7404115;19;1442;-36
2022/10/18 00:37:38;;;;;;;;;;;;;;;20.42;59.53;102633.63;7405072;19;1716;-37
2022/10/18 00:40:07;;;;;;;;;;;;;;;20.42;59.48;102620.19;7404087;19;2236;-37
2022/10/18 00:42:36;;;;;;;;;;;;;;;20.45;59.04;102641.47;7404192;19;1587;-37
2022/10/18 00:45:15;;;;;;;;;;;;;;;20.43;59.32;102621.91;7402465;19;1854;-36
2022/10/18 00:47:47;;;;;;;;;;;;;;;20.43;59.37;102633.53;7403247;19;1599;-37
2022/10/18 00:50:15;;;;;;;;;;;;;;;20.42;59.28;102633.63;7403174;19;1574;-36
2022/10/18 00:52:47;;;;;;;;;;;;;;;20.41;59.65;102610.38;7402327;19;1725;-37
2022/10/18 00:55:15;;;;;;;;;;;;;;;20.43;59.82;102616.53;7402884;19;1497;-37
2022/10/18 00:57:44;;;;;;;;;;;;;;;20.43;59.98;102632.66;7403107;19;1433;-37
2022/10/18 01:00:13;;;;;;;;;;;;;;;20.37;59.40;102612.44;7402879;19;1895;-37
2022/10/18 01:02:43;;;;;;;;;;;;;;;21.01;58.39;102614.53;7401824;19;1833;-37
2022/10/18 01:05:15;;;;;;;;;;;;;;;21.48;56.73;102602.34;7401960;19;1857;-38
2022/10/18 01:07:53;;;;;;;;;;;;;;;21.75;56.45;102618.41;7402984;19;1586;-37
2022/10/18 01:10:27;;;;;;;;;;;;;;;22.26;54.90;102616.63;7402469;19;1595;-37
2022/10/18 01:13:10;;;;;;;;;;;;;;;21.95;55.78;102605.34;7403744;19;1670;-37
2022/10/18 01:15:48;;;;;;;;;;;;;;;21.45;57.37;102607.97;7402207;19;1568;-38
2022/10/18 01:18:22;;;;;;;;;;;;;;;21.52;57.21;102608.38;7403885;19;1034;-37
2022/10/18 01:21:05;;;;;;;;;;;;;;;21.72;56.61;102604.28;7403479;19;1823;-37
2022/10/18 01:23:46;;;;;;;;;;;;;;;21.76;56.88;102605.78;7402547;19;2054;-37
2022/10/18 01:26:28;;;;;;;;;;;;;;;21.40;57.50;102597.47;7403332;19;1694;-37
2022/10/18 01:29:04;;;;;;;;;;;;;;;21.55;57.06;102600.09;7402261;19;1489;-37
2022/10/18 01:31:41;;;;;;;;;;;;;;;21.74;56.54;102605.03;7402819;19;1951;-37
2022/10/18 01:34:11;;;;;;;;;;;;;;;21.69;56.30;102602.69;7403057;19;1747;-37
2022/10/18 01:36:41;;;;;;;;;;;;;;;21.41;57.38;102596.50;7402612;19;1835;-36
2022/10/18 01:39:13;;;;;;;;;;;;;;;21.55;56.98;102602.81;7401440;19;1780;-37
2022/10/18 01:41:45;;;;;;;;;;;;;;;21.79;56.40;102598.34;7401924;19;1725;-37
2022/10/18 01:44:14;;;;;;;;;;;;;;;21.77;56.54;102604.84;7400763;19;1863;-37
2022/10/18 01:46:53;;;;;;;;;;;;;;;21.49;57.37;102581.66;7399847;19;1842;-37
2022/10/18 01:49:22;;;;;;;;;;;;;;;21.66;56.96;102575.97;7402890;19;1581;-36
2022/10/18 01:51:50;;;;;;;;;;;;;;;21.81;56.31;102590.19;7398962;19;1622;-37
2022/10/18 01:54:25;;;;;;;;;;;;;;;21.84;56.51;102588.13;7402185;19;1818;-38
2022/10/18 01:57:01;;;;;;;;;;;;;;;21.59;56.68;102585.47;7402457;19;1902;-37
2022/10/18 01:59:44;;;;;;;;;;;;;;;21.46;57.41;102577.38;7401726;19;1819;-37
2022/10/18 02:02:19;;;;;;;;;;;;;;;21.81;56.47;102582.09;7396009;19;3582;-70
2022/10/18 02:04:53;;;;;;;;;;;;;;;21.88;56.48;102582.50;7402104;19;1862;-70
2022/10/18 02:07:25;;;;;;;;;;;;;;;21.59;56.74;102580.06;7406257;19;1590;-70
2022/10/18 02:09:57;;;;;;;;;;;;;;;21.42;57.35;102584.75;7405742;19;1634;-70
2022/10/18 02:12:26;;;;;;;;;;;;;;;21.67;56.56;102584.91;7407246;19;1634;-70
2022/10/18 02:14:55;;;;;;;;;;;;;;;21.78;56.28;102577.78;7406049;19;1674;-70
2022/10/18 02:17:30;;;;;;;;;;;;;;;21.72;56.33;102591.66;7406683;19;1598;-70
2022/10/18 02:19:58;;;;;;;;;;;;;;;21.45;57.25;102575.66;7410904;19;1435;-70
2022/10/18 02:22:29;;;;;;;;;;;;;;;21.55;57.24;102573.19;7413695;19;1610;-70
2022/10/18 02:25:00;;;;;;;;;;;;;;;21.83;56.48;102578.31;7412311;19;1864;-60
2022/10/18 02:27:28;;;;;;;;;;;;;;;21.83;56.31;102578.31;7411499;19;1645;-60
2022/10/18 02:29:56;;;;;;;;;;;;;;;21.63;56.67;102578.88;7411176;19;1741;-60
2022/10/18 02:32:33;;;;;;;;;;;;;;;21.40;57.57;102575.94;7410375;19;1539;-60
2022/10/18 02:35:04;;;;;;;;;;;;;;;21.88;56.17;102577.97;7410556;19;1746;-60
2022/10/18 02:37:36;;;;;;;;;;;;;;;21.81;56.50;102574.00;7410916;19;1547;-60
2022/10/18 02:40:05;;;;;;;;;;;;;;;21.71;56.75;102578.34;7410879;19;1757;-60
2022/10/18 02:42:37;;;;;;;;;;;;;;;21.51;57.28;102571.69;7411761;19;1339;-59
2022/10/18 02:45:06;;;;;;;;;;;;;;;22.28;55.48;102576.94;7408364;19;1858;-60
2022/10/18 02:47:37;;;;;;;;;;;;;;;22.40;55.11;102587.69;7411387;19;1602;-60
2022/10/18 02:50:06;;;;;;;;;;;;;;;22.16;55.77;102579.53;7410744;19;1682;-60
2022/10/18 02:52:34;;;;;;;;;;;;;;;22.28;55.37;102587.72;7410281;19;1511;-60
2022/10/18 02:55:03;;;;;;;;;;;;;;;22.10;55.79;102598.81;7410021;19;1527;-60
2022/10/18 02:57:31;;;;;;;;;;;;;;;21.83;56.65;102586.38;7410715;19;1694;-60
2022/10/18 03:00:00;;;;;;;;;;;;;;;22.07;56.25;102593.69;7409901;19;1568;-60
2022/10/18 03:02:28;;;;;;;;;;;;;;;22.19;55.78;102578.44;7406759;19;1527;-60
2022/10/18 03:04:59;;;;;;;;;;;;;;;22.14;55.72;102586.84;7408483;19;1842;-60
2022/10/18 03:07:27;;;;;;;;;;;;;;;21.93;56.36;102610.84;7410339;19;1655;-60
2022/10/18 03:09:56;;;;;;;;;;;;;;;21.82;56.67;102587.34;7409568;19;1756;-60
2022/10/18 03:12:24;;;;;;;;;;;;;;;22.09;56.10;102589.03;7410629;19;1520;-60
2022/10/18 03:14:53;;;;;;;;;;;;;;;22.21;55.67;102587.28;7410084;19;1531;-60
2022/10/18 03:17:21;;;;;;;;;;;;;;;22.06;55.87;102583.84;7409586;19;1496;-60
2022/10/18 03:19:49;;;;;;;;;;;;;;;21.87;56.49;102584.34;7409571;19;1637;-60
2022/10/18 03:22:20;;;;;;;;;;;;;;;22.13;55.90;102595.06;7410223;19;1590;-60
2022/10/18 03:24:48;;;;;;;;;;;;;;;22.16;55.85;102579.53;7408555;19;1861;-60
2022/10/18 03:27:17;;;;;;;;;;;;;;;22.20;55.87;102578.34;7409539;19;1697;-60
2022/10/18 03:29:45;;;;;;;;;;;;;;;21.91;56.41;102585.84;7406106;19;1449;-60
2022/10/18 03:32:13;;;;;;;;;;;;;;;22.07;56.19;102582.91;7408017;19;1638;-59
2022/10/18 03:34:42;;;;;;;;;;;;;;;22.22;55.55;102578.22;7407779;19;1301;-60
2022/10/18 03:37:10;;;;;;;;;;;;;;;22.28;55.29;102577.78;7408540;19;1532;-59
2022/10/18 03:39:41;;;;;;;;;;;;;;;22.13;55.73;102585.16;7409583;19;1546;-60
2022/10/18 03:42:09;;;;;;;;;;;;;;;21.86;56.64;102579.91;7408350;19;1641;-59
2022/10/18 03:44:37;;;;;;;;;;;;;;;22.16;55.64;102584.06;7407344;19;1862;-60
2022/10/18 03:47:06;;;;;;;;;;;;;;;22.26;55.44;102573.50;7408265;19;1453;-60
2022/10/18 03:49:34;;;;;;;;;;;;;;;22.26;55.30;102573.50;7404077;19;1279;-60
2022/10/18 03:52:02;;;;;;;;;;;;;;;21.99;56.05;102577.22;7408354;19;1354;-60
2022/10/18 03:54:31;;;;;;;;;;;;;;;21.94;56.17;102582.91;7407790;19;1230;-60
2022/10/18 03:57:02;;;;;;;;;;;;;;;21.97;56.18;102584.53;7408540;19;1353;-70
2022/10/18 03:59:30;;;;;;;;;;;;;;;21.69;56.66;102582.97;7408927;19;1356;-69
2022/10/18 04:01:58;;;;;;;;;;;;;;;21.59;56.85;102578.22;7404958;19;1500;-67
2022/10/18 04:04:27;;;;;;;;;;;;;;;21.47;56.97;102580.91;7406925;19;1842;-65
2022/10/18 04:06:55;;;;;;;;;;;;;;;21.39;57.14;102574.22;7408855;19;1377;-69
2022/10/18 04:09:24;;;;;;;;;;;;;;;21.35;57.82;102574.56;7408727;19;1371;-67
2022/10/18 04:11:52;;;;;;;;;;;;;;;21.39;57.55;102573.38;7408696;19;1277;-75
2022/10/18 04:14:23;;;;;;;;;;;;;;;21.21;59.11;102559.38;7408496;19;1218;-74
2022/10/18 04:16:53;;;;;;;;;;;;;;;21.86;57.17;102577.22;7402542;19;1450;-74
2022/10/18 04:19:21;;;;;;;;;;;;;;;21.82;57.34;102565.81;7404814;19;1594;-71
2022/10/18 04:21:49;;;;;;;;;;;;;;;21.74;57.81;102567.34;7404033;19;1258;-70
2022/10/18 04:24:18;;;;;;;;;;;;;;;21.57;57.97;102565.88;7407013;19;1411;-65
2022/10/18 04:26:46;;;;;;;;;;;;;;;21.62;58.24;102566.38;7406879;19;1881;-65
2022/10/18 04:29:15;;;;;;;;;;;;;;;21.76;57.80;102560.84;7406945;19;1904;-67
2022/10/18 04:31:46;;;;;;;;;;;;;;;21.79;57.80;102559.81;7407682;19;1460;-69
2022/10/18 04:34:14;;;;;;;;;;;;;;;21.45;58.32;102563.06;7408085;19;1578;-69
2022/10/18 04:36:42;;;;;;;;;;;;;;;21.39;58.30;102555.38;7409245;19;1547;-69
2022/10/18 04:39:11;;;;;;;;;;;;;;;21.69;57.83;102559.59;7406993;19;1358;-69
2022/10/18 04:41:39;;;;;;;;;;;;;;;21.94;57.06;102568.59;7405076;19;1516;-81
2022/10/18 04:44:07;;;;;;;;;;;;;;;21.85;57.11;102565.59;7405637;19;1433;-59
2022/10/18 04:46:36;;;;;;;;;;;;;;;21.58;57.89;102573.81;7405049;19;1838;-59
2022/10/18 04:49:07;;;;;;;;;;;;;;;21.68;57.78;102574.00;7407081;19;1294;-59
2022/10/18 04:51:37;;;;;;;;;;;;;;;21.89;57.34;102565.38;7406887;19;1602;-60
2022/10/18 04:54:05;;;;;;;;;;;;;;;21.75;58.37;102575.31;7405904;19;1709;-68
2022/10/18 04:56:34;;;;;;;;;;;;;;;21.59;58.39;102569.31;7406972;19;1607;-63
2022/10/18 04:59:03;;;;;;;;;;;;;;;21.53;59.18;102554.44;7407291;19;1512;-68
2022/10/18 05:01:32;;;;;;;;;;;;;;;21.94;58.27;102579.38;7405624;19;1602;-70
2022/10/18 05:04:00;;;;;;;;;;;;;;;21.81;58.35;102574.88;7407579;19;1464;-68
2022/10/18 05:06:31;;;;;;;;;;;;;;;21.66;60.06;102565.19;7398858;19;1862;-64
2022/10/18 05:08:59;;;;;;;;;;;;;;;21.64;59.58;102561.75;7407451;19;1412;-74
2022/10/18 05:11:27;;;;;;;;;;;;;;;22.07;59.14;102580.22;7406358;19;1776;-73
2022/10/18 05:13:56;;;;;;;;;;;;;;;22.21;58.52;102566.56;7407455;19;1563;-71
2022/10/18 05:16:24;;;;;;;;;;;;;;;22.10;58.78;102577.28;7406151;19;1476;-70
2022/10/18 05:18:52;;;;;;;;;;;;;;;22.00;59.50;102581.63;7406193;19;1269;-71
2022/10/18 05:21:20;;;;;;;;;;;;;;;21.69;60.33;102564.13;7405933;19;1316;-72
2022/10/18 05:23:51;;;;;;;;;;;;;;;21.69;60.15;102564.97;7407547;19;1482;-70
2022/10/18 05:26:20;;;;;;;;;;;;;;;22.10;58.77;102560.25;7406270;19;1862;-71
2022/10/18 05:28:48;;;;;;;;;;;;;;;21.97;59.18;102569.25;7405359;19;1599;-69
2022/10/18 05:31:16;;;;;;;;;;;;;;;21.96;58.97;102562.09;7405968;19;1536;-66
2022/10/18 05:33:45;;;;;;;;;;;;;;;21.81;59.36;102568.63;7404393;19;1352;-67
2022/10/18 05:36:13;;;;;;;;;;;;;;;21.60;59.97;102563.78;7406255;19;1099;-67
2022/10/18 05:38:44;;;;;;;;;;;;;;;22.09;59.06;102572.88;7404530;19;1499;-65
2022/10/18 05:41:16;;;;;;;;;;;;;;;22.16;59.38;102584.06;7405409;19;1448;-69
2022/10/18 05:43:44;;;;;;;;;;;;;;;22.12;59.87;102572.63;7404871;19;1527;-68
2022/10/18 05:46:12;;;;;;;;;;;;;;;22.14;59.82;102578.78;7404763;19;1846;-68
2022/10/18 05:48:41;;;;;;;;;;;;;;;22.12;59.24;102569.09;7403763;19;1662;-64
2022/10/18 05:51:09;;;;;;;;;;;;;;;21.98;60.57;102570.09;7404297;19;1572;-68
2022/10/18 05:53:37;;;;;;;;;;;;;;;22.41;59.56;102589.38;7402780;19;1436;-69
2022/10/18 05:56:06;;;;;;;;;;;;;;;22.54;59.04;102583.97;7400508;19;1373;-69
2022/10/18 05:58:37;;;;;;;;;;;;;;;22.35;59.75;102589.00;7404479;19;1345;-68
2022/10/18 06:01:07;;;;;;;;;;;;;;;22.26;60.24;102589.66;7401208;19;1472;-74
2022/10/18 06:03:35;;;;;;;;;;;;;;;22.18;60.72;102603.66;7404228;19;1670;-72
2022/10/18 06:06:05;;;;;;;;;;;;;;;21.98;60.77;102602.41;7410671;19;1862;-68
2022/10/18 06:08:33;;;;;;;;;;;;;;;21.99;56.67;102596.06;7405538;19;1281;-68
2022/10/18 06:11:07;;;;;;;;;;;;;;;22.40;57.28;102589.50;7405454;19;1336;-70
2022/10/18 06:13:41;;;;;;;;;;;;;;;22.27;59.35;102607.56;7406204;19;1326;-64
2022/10/18 06:16:10;;;;;;;;;;;;;;;22.10;59.55;102589.88;7399859;19;1318;-70
2022/10/18 06:18:38;;;;;;;;;;;;;;;22.05;59.86;102592.94;7406117;19;1108;-66
2022/10/18 06:21:07;;;;;;;;;;;;;;;22.03;60.14;102606.50;7406608;19;1384;-67
2022/10/18 06:23:35;;;;;;;;;;;;;;;22.68;59.07;102592.81;7404935;19;1547;-66
2022/10/18 06:26:05;;;;;;;;;;;;;;;22.70;58.18;102583.66;7399352;19;1844;-68
2022/10/18 06:28:35;;;;;;;;;;;;;;;22.48;59.50;102584.38;7401141;19;1348;-68
2022/10/18 06:31:07;;;;;;;;;;;;;;;22.32;59.04;102591.91;7403172;19;1309;-62
2022/10/18 06:33:36;;;;;;;;;;;;;;;22.24;58.91;102590.66;7403751;19;1317;-66
2022/10/18 06:36:07;;;;;;;;;;;;;;;22.24;59.53;102582.56;7403374;19;1377;-68
2022/10/18 06:38:35;;;;;;;;;;;;;;;22.67;57.17;102586.59;7402483;19;1566;-68
2022/10/18 06:41:04;;;;;;;;;;;;;;;22.79;56.48;102579.41;7402409;19;1301;-63
2022/10/18 06:43:32;;;;;;;;;;;;;;;22.62;56.74;102583.34;7401970;19;1274;-67
2022/10/18 06:46:02;;;;;;;;;;;;;;;22.53;57.75;102579.53;7402549;19;1846;-66
2022/10/18 06:48:33;;;;;;;;;;;;;;;22.45;58.28;102579.25;7400706;19;1432;-71
2022/10/18 06:51:02;;;;;;;;;;;;;;;22.44;58.44;102572.13;7402299;19;1421;-61
2022/10/18 06:53:32;;;;;;;;;;;;;;;22.44;58.15;102575.69;7402981;19;1527;-70
2022/10/18 06:56:03;;;;;;;;;;;;;;;22.48;58.70;102579.00;7401755;19;1651;-62
2022/10/18 06:58:32;;;;;;;;;;;;;;;22.47;58.78;102580.00;7401633;19;1179;-61
2022/10/18 07:01:01;;;;;;;;;;;;;;;22.53;58.75;102576.84;7400388;19;1461;-68
2022/10/18 07:03:29;;;;;;;;;;;;;;;22.79;56.49;102565.91;7402852;19;1199;-66
2022/10/18 07:06:05;;;;;;;;;;;;;;;23.12;56.30;102576.00;7339078;19;12715;-64
2022/10/18 07:08:33;;;;;;;;;;;;;;;22.90;57.51;102581.28;7409142;19;1550;-64
2022/10/18 07:11:02;;;;;;;;;;;;;;;22.76;58.64;102569.72;7405045;19;1243;-65
2022/10/18 07:13:31;;;;;;;;;;;;;;;22.71;59.38;102573.72;7402908;19;1434;-63
2022/10/18 07:16:04;;;;;;;;;;;;;;;22.71;60.10;102565.66;7409537;19;1457;-68
2022/10/18 07:18:33;;;;;;;;;;;;;;;22.66;61.21;102548.94;7411242;19;1564;-66
2022/10/18 07:21:05;;;;;;;;;;;;;;;22.66;60.33;102566.00;7407119;19;1806;-66
2022/10/18 07:23:34;;;;;;;;;;;;;;;22.70;60.57;102556.69;7406951;19;1505;-64
2022/10/18 07:26:03;;;;;;;;;;;;;;;22.72;60.91;102564.66;7407020;19;1853;-66
2022/10/18 07:28:32;;;;;;;;;;;;;;;22.63;60.71;102561.69;7408587;19;1380;-61
2022/10/18 07:31:06;;;;;;;;;;;;;;;22.57;61.72;102545.97;7407477;19;1317;-65
2022/10/18 07:33:34;;;;;;;;;;;;;;;22.50;62.54;102549.25;7409731;19;1062;-66
2022/10/18 07:36:06;;;;;;;;;;;;;;;22.56;63.23;102557.75;7406865;19;1902;-66
2022/10/18 07:38:35;;;;;;;;;;;;;;;22.71;61.96;102552.16;7406846;19;1238;-68
2022/10/18 07:41:05;;;;;;;;;;;;;;;22.74;61.58;102558.19;7408487;19;1339;-73
2022/10/18 13:07:23;;;;;;;;;;;;;;;22.42;52.38;102070.00;7395752;19;1846;-37
2022/10/18 13:10:05;;;;;;;;;;;;;;;22.20;53.16;102073.56;7402091;19;1636;-36
2022/10/18 13:12:50;;;;;;;;;;;;;;;21.94;53.83;102073.84;7400548;19;1627;-35
2022/10/18 13:15:28;;;;;;;;;;;;;;;21.86;54.18;102065.53;7401766;19;1477;-36
2022/10/18 13:18:01;;;;;;;;;;;;;;;21.80;54.48;102066.88;7401884;19;1536;-36
2022/10/18 13:20:33;;;;;;;;;;;;;;;21.80;54.70;102060.63;7402092;19;1615;-35
2022/10/18 13:23:10;;;;;;;;;;;;;;;21.73;55.21;102062.13;7400207;19;1485;-35
2022/10/18 13:25:48;;;;;;;;;;;;;;;21.72;55.27;102063.09;7402471;19;1526;-36
2022/10/18 13:28:24;;;;;;;;;;;;;;;21.68;55.48;102067.00;7399701;19;1846;-37
2022/10/18 13:30:56;;;;;;;;;;;;;;;21.69;55.66;102053.44;7401711;19;1911;-35
2022/10/18 13:33:30;;;;;;;;;;;;;;;21.64;55.55;102059.16;7401707;19;1921;-38
2022/10/18 13:36:00;;;;;;;;;;;;;;;21.62;55.76;102047.66;7403090;19;1829;-36
2022/10/18 13:38:49;;;;;;;;;;;;;;;21.61;55.64;102035.19;7402723;19;1814;-35
2022/10/18 13:41:23;;;;;;;;;;;;;;;21.61;55.90;102040.56;7400034;19;2324;-36
2022/10/18 13:44:21;;;;;;;;;;;;;;;21.57;55.87;102039.09;7401858;19;1818;-35
2022/10/18 13:47:19;;;;;;;;;;;;;;;21.58;55.80;102029.19;7401107;19;2032;-36
2022/10/18 13:50:08;;;;;;;;;;;;;;;21.54;54.81;102023.19;7401667;19;1894;-35
2022/10/18 13:52:51;;;;;;;;;;;;;;;21.47;51.73;102021.09;7401151;19;1852;-35
2022/10/18 13:55:35;;;;;;;;;;;;;;;21.41;51.11;102028.66;7401702;19;1826;-35
2022/10/18 13:58:10;;;;;;;;;;;;;;;21.42;53.29;102032.19;7402066;19;1443;-35
2022/10/18 14:00:48;;;;;;;;;;;;;;;21.39;53.92;102019.00;7401335;19;1805;-35
2022/10/18 14:03:31;;;;;;;;;;;;;;;21.40;54.81;101991.94;7400660;19;1727;-35
2022/10/18 14:06:03;;;;;;;;;;;;;;;21.39;53.93;101992.94;7396602;19;1955;-37
2022/10/18 14:08:36;;;;;;;;;;;;;;;21.40;54.17;102000.03;7400054;19;1849;-35
2022/10/18 14:11:05;;;;;;;;;;;;;;;21.36;53.50;102012.00;7400571;19;1791;-35
2022/10/18 14:13:39;;;;;;;;;;;;;;;21.35;55.03;101996.84;7400147;19;2059;-35
2022/10/18 14:16:12;;;;;;;;;;;;;;;21.32;53.42;101975.56;7398042;19;1902;-35
2022/10/18 14:18:42;;;;;;;;;;;;;;;21.34;54.71;101994.28;7400692;19;1773;-35
2022/10/18 14:21:14;;;;;;;;;;;;;;;21.37;55.76;101994.06;7402517;19;1019;-35
2022/10/18 14:23:44;;;;;;;;;;;;;;;21.32;55.81;101991.69;7401058;19;1856;-35
2022/10/18 14:26:15;;;;;;;;;;;;;;;21.29;56.51;101974.94;7399952;19;1947;-35
2022/10/18 14:28:46;;;;;;;;;;;;;;;21.29;56.50;101978.50;7401841;19;1673;-35
2022/10/18 14:31:16;;;;;;;;;;;;;;;21.21;56.62;101964.81;7400636;19;2139;-35
2022/10/18 14:33:45;;;;;;;;;;;;;;;21.20;57.04;101971.16;7403284;19;2364;-35
2022/10/18 14:36:14;;;;;;;;;;;;;;;21.17;57.00;101966.88;7400607;19;1908;-35
2022/10/18 14:38:48;;;;;;;;;;;;;;;21.16;57.40;101965.16;7399386;19;1680;-35
2022/10/18 14:41:18;;;;;;;;;;;;;;;21.16;57.35;101958.94;7399994;19;1743;-36
2022/10/18 14:43:49;;;;;;;;;;;;;;;21.14;57.29;101959.03;7400829;19;1671;-35
2022/10/18 14:46:24;;;;;;;;;;;;;;;21.17;57.09;101966.00;7399566;19;2043;-36
2022/10/18 14:48:53;;;;;;;;;;;;;;;21.18;56.95;101954.28;7399222;19;1396;-35
2022/10/18 14:51:22;;;;;;;;;;;;;;;21.21;57.03;101948.66;7403428;19;1736;-36
2022/10/18 14:53:50;;;;;;;;;;;;;;;21.21;57.65;101951.34;7401808;19;1501;-35
2022/10/18 14:56:23;;;;;;;;;;;;;;;21.30;56.95;101949.75;7401060;19;1969;-36
2022/10/18 14:58:54;;;;;;;;;;;;;;;21.22;57.64;101942.28;7399410;19;1610;-36
2022/10/18 15:01:24;;;;;;;;;;;;;;;21.23;57.44;101938.66;7398411;19;1525;-36
2022/10/18 15:03:57;;;;;;;;;;;;;;;21.32;57.46;101942.44;7399077;19;1877;-35
2022/10/18 15:06:25;;;;;;;;;;;;;;;21.28;57.56;101941.81;7398618;19;1472;-37
2022/10/18 15:08:56;;;;;;;;;;;;;;;21.34;57.57;101938.63;7394891;19;2156;-36
2022/10/18 15:11:24;;;;;;;;;;;;;;;21.23;57.85;101930.56;7398521;19;1366;-35
2022/10/18 15:13:57;;;;;;;;;;;;;;;21.21;58.36;101937.91;7398441;19;1480;-35
2022/10/18 15:16:26;;;;;;;;;;;;;;;21.17;58.74;101928.34;7398797;19;1499;-36
2022/10/18 15:19:02;;;;;;;;;;;;;;;21.07;54.80;101920.16;7398506;19;1616;-35
2022/10/18 15:21:30;;;;;;;;;;;;;;;21.10;56.52;101924.44;7398650;19;1832;-36
2022/10/18 15:24:19;;;;;;;;;;;;;;;21.05;56.05;101917.59;7400011;19;1818;-36
2022/10/18 15:26:48;;;;;;;;;;;;;;;21.06;56.39;101927.38;7401599;19;2021;-36
2022/10/18 15:29:21;;;;;;;;;;;;;;;21.02;58.42;101914.28;7404773;19;1787;-36
2022/10/18 15:31:49;;;;;;;;;;;;;;;21.02;59.08;101920.50;7406925;19;1710;-35
2022/10/18 15:34:20;;;;;;;;;;;;;;;21.00;58.78;101910.88;7408089;19;1647;-36
2022/10/18 15:36:49;;;;;;;;;;;;;;;21.05;59.17;101925.66;7406093;19;1952;-35
2022/10/18 15:39:18;;;;;;;;;;;;;;;21.01;58.84;101917.97;7408158;19;1797;-36
2022/10/18 15:41:48;;;;;;;;;;;;;;;20.96;58.85;101910.25;7405786;19;1625;-36
2022/10/18 15:44:30;;;;;;;;;;;;;;;20.93;58.88;101910.50;7404550;19;1892;-36
2022/10/18 15:47:10;;;;;;;;;;;;;;;20.94;58.77;101914.88;7406116;19;1830;-35
2022/10/18 15:49:55;;;;;;;;;;;;;;;20.96;58.87;101921.00;7404735;19;1565;-36
2022/10/18 15:52:33;;;;;;;;;;;;;;;20.95;58.92;101916.63;7404172;19;1503;-36
2022/10/18 15:55:02;;;;;;;;;;;;;;;20.93;58.99;101920.38;7401673;19;1815;-36
2022/10/18 15:57:32;;;;;;;;;;;;;;;20.95;58.26;101924.69;7403555;19;1613;-36
2022/10/18 16:00:05;;;;;;;;;;;;;;;20.93;58.15;101932.00;7403928;19;1751;-36
2022/10/18 16:02:33;;;;;;;;;;;;;;;20.96;57.86;101934.44;7402920;19;1576;-36
2022/10/18 16:05:02;;;;;;;;;;;;;;;20.94;58.07;101928.34;7405343;19;2632;-37
2022/10/18 16:07:31;;;;;;;;;;;;;;;20.95;56.02;101939.94;7402411;19;1853;-35
2022/10/18 16:09:59;;;;;;;;;;;;;;;20.89;57.23;101929.66;7403197;19;1485;-35
2022/10/18 16:12:27;;;;;;;;;;;;;;;20.92;56.91;101921.38;7405318;19;1314;-36
2022/10/18 16:14:55;;;;;;;;;;;;;;;20.95;57.78;101934.56;7403674;19;2052;-36
2022/10/18 16:17:26;;;;;;;;;;;;;;;21.01;56.59;101920.66;7403013;19;1794;-37
2022/10/18 16:19:54;;;;;;;;;;;;;;;21.04;56.98;101932.00;7402534;19;1315;-37
2022/10/18 16:22:23;;;;;;;;;;;;;;;21.05;57.66;101931.03;7403716;19;1447;-39
2022/10/18 16:24:51;;;;;;;;;;;;;;;21.06;57.16;101921.97;7403869;19;1637;-37
2022/10/18 16:27:20;;;;;;;;;;;;;;;21.14;57.60;101928.59;7404515;19;1862;-37
2022/10/18 16:29:48;;;;;;;;;;;;;;;21.12;57.80;101931.41;7403542;19;1666;-38
2022/10/18 16:32:16;;;;;;;;;;;;;;;21.20;57.56;101930.81;7403938;19;1608;-38
2022/10/18 16:34:47;;;;;;;;;;;;;;;21.23;58.32;101927.88;7403818;19;1518;-37
2022/10/18 16:37:15;;;;;;;;;;;;;;;21.19;59.01;101923.72;7402395;19;1674;-37
2022/10/18 16:39:44;;;;;;;;;;;;;;;21.15;58.67;101914.16;7403365;19;1769;-38
2022/10/18 16:42:12;;;;;;;;;;;;;;;21.09;59.17;101923.59;7404086;19;1585;-38
2022/10/18 16:44:40;;;;;;;;;;;;;;;21.10;59.41;101924.44;7402652;19;1647;-38
2022/10/18 16:47:09;;;;;;;;;;;;;;;21.17;59.58;101922.97;7401236;19;1870;-38
2022/10/18 16:49:38;;;;;;;;;;;;;;;21.15;59.71;101924.91;7403501;19;1731;-37
2022/10/18 16:52:09;;;;;;;;;;;;;;;21.09;59.38;101912.84;7402079;19;1646;-37
2022/10/18 16:54:37;;;;;;;;;;;;;;;21.16;60.76;101914.03;7403886;19;1472;-37
2022/10/18 16:57:06;;;;;;;;;;;;;;;21.13;60.12;101926.88;7403734;19;1778;-36
2022/10/18 16:59:34;;;;;;;;;;;;;;;21.13;59.97;101933.13;7402674;19;1679;-36
2022/10/18 17:02:07;;;;;;;;;;;;;;;21.12;59.92;101919.78;7401265;19;1930;-37
2022/10/18 17:04:35;;;;;;;;;;;;;;;21.09;59.84;101925.41;7402492;19;1903;-37
2022/10/18 17:07:04;;;;;;;;;;;;;;;21.20;59.98;101933.50;7399631;19;1717;-38
2022/10/18 17:09:35;;;;;;;;;;;;;;;21.17;59.98;101915.78;7401135;19;1853;-36
2022/10/18 17:12:04;;;;;;;;;;;;;;;21.23;60.40;101914.44;7401406;19;1863;-37
2022/10/18 17:14:35;;;;;;;;;;;;;;;21.32;60.62;101926.28;7401474;19;1638;-37
2022/10/18 17:17:03;;;;;;;;;;;;;;;21.23;59.78;101917.13;7402702;19;1513;-37
2022/10/18 17:19:31;;;;;;;;;;;;;;;21.18;60.47;101911.25;7402808;19;1389;-37
2022/10/18 17:22:00;;;;;;;;;;;;;;;21.17;60.89;101918.47;7403254;19;1813;-37
2022/10/18 17:24:28;;;;;;;;;;;;;;;21.18;60.41;101919.31;7404623;19;1477;-38
2022/10/18 17:26:59;;;;;;;;;;;;;;;21.23;60.56;101907.22;7402700;19;1578;-37
2022/10/18 17:29:27;;;;;;;;;;;;;;;21.26;60.06;101916.84;7392016;19;2169;-37
2022/10/18 17:31:55;;;;;;;;;;;;;;;21.26;60.13;101900.72;7399598;19;1502;-37
2022/10/18 17:34:23;;;;;;;;;;;;;;;21.29;59.79;101919.31;7401994;19;1744;-37
2022/10/18 17:36:52;;;;;;;;;;;;;;;21.17;60.10;101896.06;7402279;19;1764;-37
2022/10/18 17:39:20;;;;;;;;;;;;;;;21.16;60.17;101899.75;7407826;19;1894;-37
2022/10/18 17:41:49;;;;;;;;;;;;;;;21.14;60.34;101902.56;7399891;19;1395;-38
2022/10/18 17:44:20;;;;;;;;;;;;;;;21.14;60.48;101901.69;7401571;19;1552;-37
2022/10/18 17:46:48;;;;;;;;;;;;;;;21.14;60.58;101904.41;7399703;19;1722;-37
2022/10/18 17:49:17;;;;;;;;;;;;;;;21.14;60.67;101901.69;7399969;19;1857;-38
2022/10/18 17:51:45;;;;;;;;;;;;;;;21.17;60.68;101907.69;7397726;19;1624;-37
2022/10/18 17:54:13;;;;;;;;;;;;;;;21.27;60.24;101905.13;7396934;19;1684;-39
2022/10/18 17:56:42;;;;;;;;;;;;;;;21.23;60.37;101895.59;7399711;19;1890;-38
2022/10/18 17:59:10;;;;;;;;;;;;;;;21.26;60.39;101893.50;7400467;19;1340;-37
2022/10/18 18:01:42;;;;;;;;;;;;;;;21.24;60.62;101887.38;7398335;19;1601;-37
2022/10/18 18:04:10;;;;;;;;;;;;;;;21.15;60.95;101892.63;7400283;19;1636;-38
2022/10/18 18:06:40;;;;;;;;;;;;;;;21.08;60.31;101876.16;7400723;19;1656;-37
2022/10/18 18:09:09;;;;;;;;;;;;;;;21.08;60.51;101872.59;7399349;19;1842;-37
2022/10/18 18:11:39;;;;;;;;;;;;;;;21.05;60.59;101866.50;7401813;19;1532;-40
2022/10/18 18:14:08;;;;;;;;;;;;;;;21.07;60.42;101866.38;7401265;19;1323;-37
2022/10/18 18:16:38;;;;;;;;;;;;;;;21.08;60.43;101865.38;7400285;19;1938;-38
2022/10/18 18:19:09;;;;;;;;;;;;;;;21.02;59.67;101861.34;7399793;19;1948;-38
2022/10/18 18:21:37;;;;;;;;;;;;;;;21.02;59.85;101853.28;7400892;19;1541;-38
2022/10/18 18:24:06;;;;;;;;;;;;;;;21.05;60.20;101863.81;7401452;19;1604;-37
2022/10/18 18:26:34;;;;;;;;;;;;;;;21.03;59.57;101854.16;7400167;19;1699;-37
2022/10/18 18:29:03;;;;;;;;;;;;;;;21.10;59.62;101857.22;7399733;19;1851;-35